createdAt,value
2019-02-18T00:01:20.255Z,3.00
2019-02-18T00:03:54.004Z,3.00
2019-02-18T00:06:27.428Z,2.90
2019-02-18T00:09:00.876Z,2.80
2019-02-18T00:11:34.309Z,2.70
2019-02-18T00:14:07.762Z,2.70
2019-02-18T00:16:41.184Z,2.70
2019-02-18T00:19:14.636Z,2.70
2019-02-18T00:21:48.142Z,2.80
2019-02-18T00:24:21.784Z,2.80
2019-02-18T00:26:55.209Z,2.90
2019-02-18T00:29:28.667Z,2.90
2019-02-18T00:32:02.081Z,2.90
2019-02-18T00:34:35.522Z,2.90
2019-02-18T00:37:09.355Z,2.90
2019-02-18T00:39:42.793Z,2.90
2019-02-18T00:42:16.230Z,2.90
2019-02-18T00:44:49.670Z,2.80
2019-02-18T00:47:23.105Z,2.80
2019-02-18T00:49:56.541Z,2.80
2019-02-18T00:52:29.989Z,2.80
2019-02-18T00:55:03.919Z,2.70
2019-02-18T00:57:37.344Z,2.80
2019-02-18T01:00:16.281Z,2.80
2019-02-18T01:02:49.715Z,2.70
2019-02-18T01:05:23.159Z,2.70
2019-02-18T01:07:56.756Z,2.70
2019-02-18T01:10:30.201Z,2.70
2019-02-18T01:13:03.641Z,2.70
2019-02-18T01:15:37.087Z,2.80
2019-02-18T01:18:10.513Z,2.70
2019-02-18T01:20:44.023Z,2.70
2019-02-18T01:23:17.454Z,2.70
2019-02-18T01:25:50.906Z,2.70
2019-02-18T01:28:24.330Z,2.70
2019-02-18T01:30:58.057Z,2.70
2019-02-18T01:33:31.481Z,2.70
2019-02-18T01:36:05.192Z,2.80
2019-02-18T01:38:39.541Z,2.80
2019-02-18T01:41:12.976Z,2.80
2019-02-18T01:43:46.410Z,2.80
2019-02-18T01:46:19.853Z,2.80
2019-02-18T01:48:53.285Z,2.90
2019-02-18T01:51:26.735Z,2.90
2019-02-18T01:54:00.163Z,2.90
2019-02-18T01:56:33.596Z,2.90
2019-02-18T01:59:07.029Z,2.80
2019-02-18T02:01:40.473Z,2.90
2019-02-18T02:04:13.910Z,2.90
2019-02-18T02:06:47.349Z,2.90
2019-02-18T02:09:20.777Z,2.90
2019-02-18T02:11:54.285Z,2.90
2019-02-18T02:14:27.714Z,2.90
2019-02-18T02:17:01.178Z,2.90
2019-02-18T02:19:34.609Z,2.90
2019-02-18T02:22:08.049Z,2.80
2019-02-18T02:24:41.477Z,2.90
2019-02-18T02:27:14.929Z,2.90
2019-02-18T02:29:48.347Z,2.90
2019-02-18T02:32:21.782Z,2.80
2019-02-18T02:34:55.225Z,2.80
2019-02-18T02:37:28.679Z,2.80
2019-02-18T02:40:02.108Z,2.80
2019-02-18T02:42:35.558Z,2.70
2019-02-18T02:45:09.433Z,2.70
2019-02-18T02:47:42.876Z,2.70
2019-02-18T02:50:16.306Z,2.60
2019-02-18T02:52:49.768Z,2.60
2019-02-18T02:55:23.199Z,2.60
2019-02-18T02:57:56.654Z,2.50
2019-02-18T03:00:30.094Z,2.50
2019-02-18T03:03:03.615Z,2.40
2019-02-18T03:05:37.105Z,2.40
2019-02-18T03:08:19.982Z,2.40
2019-02-18T03:10:45.701Z,2.40
2019-02-18T03:13:19.139Z,2.40
2019-02-18T03:15:52.577Z,2.40
2019-02-18T03:18:26.025Z,2.40
2019-02-18T03:20:59.444Z,2.40
2019-02-18T03:23:33.361Z,2.40
2019-02-18T03:26:06.786Z,2.40
2019-02-18T03:28:43.300Z,2.50
2019-02-18T03:31:19.805Z,2.50
2019-02-18T03:33:58.987Z,2.50
2019-02-18T03:36:32.412Z,2.50
2019-02-18T03:39:06.738Z,2.60
2019-02-18T03:41:40.975Z,2.50
2019-02-18T03:44:14.798Z,2.60
2019-02-18T03:46:50.618Z,2.60
2019-02-18T03:49:23.399Z,2.60
2019-02-18T03:51:56.827Z,2.50
2019-02-18T03:54:30.288Z,2.50
2019-02-18T03:57:03.762Z,2.50
2019-02-18T03:59:37.204Z,2.40
2019-02-18T04:02:10.642Z,2.50
2019-02-18T04:04:44.151Z,2.40
2019-02-18T04:07:17.573Z,2.40
2019-02-18T04:09:51.028Z,2.40
2019-02-18T04:12:24.461Z,2.30
2019-02-18T04:14:57.913Z,2.20
2019-02-18T04:17:31.350Z,2.20
2019-02-18T04:20:06.325Z,2.20
2019-02-18T04:22:39.753Z,2.20
2019-02-18T04:25:13.194Z,2.20
2019-02-18T04:27:46.632Z,2.20
2019-02-18T04:30:20.062Z,2.30
2019-02-18T04:32:53.492Z,2.30
2019-02-18T04:35:26.940Z,2.30
2019-02-18T04:38:00.370Z,2.30
2019-02-18T04:40:33.807Z,2.30
2019-02-18T04:43:07.231Z,2.20
2019-02-18T04:45:40.674Z,2.10
2019-02-18T04:48:14.101Z,2.20
2019-02-18T04:50:47.537Z,2.20
2019-02-18T04:53:20.965Z,2.20
2019-02-18T04:55:54.412Z,2.20
2019-02-18T04:58:27.835Z,2.10
2019-02-18T05:01:02.934Z,2.10
2019-02-18T05:03:36.432Z,2.20
2019-02-18T05:06:09.875Z,2.30
2019-02-18T05:08:43.297Z,2.20
2019-02-18T05:11:16.743Z,2.20
2019-02-18T05:13:50.162Z,2.20
2019-02-18T05:16:23.597Z,2.10
2019-02-18T05:18:57.016Z,2.20
2019-02-18T05:21:31.998Z,2.10
2019-02-18T05:24:05.449Z,2.10
2019-02-18T05:26:38.942Z,2.10
2019-02-18T05:29:12.375Z,2.20
2019-02-18T05:31:45.822Z,2.20
2019-02-18T05:34:19.244Z,2.20
2019-02-18T05:36:52.748Z,2.10
2019-02-18T05:39:26.181Z,2.10
2019-02-18T05:41:59.631Z,2.10
2019-02-18T05:44:33.056Z,2.10
2019-02-18T05:47:06.496Z,2.10
2019-02-18T05:49:39.921Z,2.10
2019-02-18T05:52:13.377Z,2.00
2019-02-18T05:54:46.812Z,2.00
2019-02-18T05:57:22.784Z,2.00
2019-02-18T05:59:55.400Z,2.00
2019-02-18T06:02:28.848Z,2.00
2019-02-18T06:05:04.281Z,2.00
2019-02-18T06:07:37.721Z,2.00
2019-02-18T06:10:11.173Z,2.00
2019-02-18T06:12:44.678Z,2.10
2019-02-18T06:15:18.301Z,2.10
2019-02-18T06:17:51.738Z,2.10
2019-02-18T06:20:25.176Z,2.10
2019-02-18T06:22:58.613Z,2.10
2019-02-18T06:25:32.048Z,2.00
2019-02-18T06:28:05.491Z,2.00
2019-02-18T06:30:38.908Z,2.10
2019-02-18T06:33:12.361Z,2.10
2019-02-18T06:35:45.797Z,2.10
2019-02-18T06:38:19.269Z,2.10
2019-02-18T06:40:52.696Z,2.10
2019-02-18T06:43:26.205Z,2.10
2019-02-18T06:46:17.295Z,2.00
2019-02-18T06:48:52.375Z,2.00
2019-02-18T06:51:45.146Z,2.00
2019-02-18T06:54:18.589Z,2.00
2019-02-18T06:56:56.357Z,2.00
2019-02-18T06:59:31.456Z,2.00
2019-02-18T07:02:09.501Z,2.00
2019-02-18T07:04:47.213Z,2.00
2019-02-18T07:07:25.322Z,2.10
2019-02-18T07:10:03.550Z,2.10
2019-02-18T07:12:38.615Z,2.10
2019-02-18T07:15:12.115Z,2.10
2019-02-18T07:17:45.541Z,2.10
2019-02-18T07:20:19.052Z,2.10
2019-02-18T07:22:52.523Z,2.10
2019-02-18T07:25:25.981Z,2.00
2019-02-18T07:27:59.409Z,2.00
2019-02-18T07:30:32.853Z,2.00
2019-02-18T07:33:06.277Z,2.10
2019-02-18T07:35:39.721Z,2.10
2019-02-18T07:38:13.151Z,2.20
2019-02-18T07:40:46.611Z,2.20
2019-02-18T07:43:20.042Z,2.30
2019-02-18T07:45:53.481Z,2.30
2019-02-18T07:48:26.900Z,2.30
2019-02-18T07:51:00.397Z,2.40
2019-02-18T07:53:33.831Z,2.30
2019-02-18T07:56:07.293Z,2.30
2019-02-18T07:58:40.723Z,2.40
2019-02-18T08:01:14.163Z,2.50
2019-02-18T08:03:47.589Z,2.50
2019-02-18T08:06:21.044Z,2.50
2019-02-18T08:08:54.467Z,2.50
2019-02-18T08:11:27.911Z,2.50
2019-02-18T08:14:01.409Z,2.50
2019-02-18T08:16:34.912Z,2.40
2019-02-18T08:19:08.346Z,2.50
2019-02-18T08:21:41.790Z,2.50
2019-02-18T08:24:15.232Z,2.50
2019-02-18T08:26:48.670Z,2.50
2019-02-18T08:29:22.096Z,2.50
2019-02-18T08:31:55.537Z,2.60
2019-02-18T08:34:28.958Z,2.60
2019-02-18T08:37:02.401Z,2.70
2019-02-18T08:39:35.829Z,2.80
2019-02-18T08:42:09.259Z,2.80
2019-02-18T08:44:42.691Z,2.90
2019-02-18T08:47:16.124Z,3.00
2019-02-18T08:49:49.552Z,3.10
2019-02-18T08:52:23.012Z,3.20
2019-02-18T08:54:56.983Z,3.30
2019-02-18T08:57:30.663Z,3.20
2019-02-18T09:00:06.998Z,3.20
2019-02-18T09:02:40.424Z,3.20
2019-02-18T09:05:13.982Z,3.20
2019-02-18T09:07:47.475Z,3.30
2019-02-18T09:10:20.911Z,3.30
2019-02-18T09:12:54.352Z,3.30
2019-02-18T09:15:27.777Z,3.30
2019-02-18T09:18:01.214Z,3.40
2019-02-18T09:20:34.647Z,3.40
2019-02-18T09:23:15.530Z,3.40
2019-02-18T09:25:50.589Z,3.30
2019-02-18T09:28:24.029Z,3.30
2019-02-18T09:30:57.513Z,3.30
2019-02-18T09:33:30.960Z,3.40
2019-02-18T09:36:04.465Z,3.40
2019-02-18T09:38:37.911Z,3.40
2019-02-18T09:41:11.346Z,3.50
2019-02-18T09:43:44.772Z,3.60
2019-02-18T09:46:18.191Z,3.60
2019-02-18T09:48:51.641Z,3.60
2019-02-18T09:51:25.065Z,3.70
2019-02-18T09:53:58.579Z,3.70
2019-02-18T09:56:32.080Z,3.80
2019-02-18T09:59:05.516Z,3.90
2019-02-18T10:01:38.938Z,3.90
2019-02-18T10:04:12.374Z,3.90
2019-02-18T10:06:45.796Z,4.00
2019-02-18T10:09:19.252Z,4.00
2019-02-18T10:11:52.732Z,4.00
2019-02-18T10:14:26.181Z,4.10
2019-02-18T10:16:59.607Z,4.30
2019-02-18T10:19:33.060Z,4.40
2019-02-18T10:22:06.493Z,4.40
2019-02-18T10:24:50.247Z,4.40
2019-02-18T10:27:15.068Z,4.40
2019-02-18T10:29:48.512Z,4.40
2019-02-18T10:32:21.937Z,4.50
2019-02-18T10:34:55.376Z,4.50
2019-02-18T10:37:28.865Z,4.60
2019-02-18T10:40:02.563Z,4.60
2019-02-18T10:42:35.994Z,4.70
2019-02-18T10:45:13.560Z,4.80
2019-02-18T10:47:46.974Z,4.80
2019-02-18T10:50:20.412Z,4.80
2019-02-18T10:52:53.840Z,4.80
2019-02-18T10:55:27.663Z,4.80
2019-02-18T10:58:01.084Z,4.80
2019-02-18T11:00:34.595Z,4.90
2019-02-18T11:03:08.018Z,5.00
2019-02-18T11:05:42.029Z,5.10
2019-02-18T11:08:15.460Z,5.10
2019-02-18T11:10:48.899Z,5.20
2019-02-18T11:13:22.394Z,5.30
2019-02-18T11:15:55.912Z,5.40
2019-02-18T11:18:29.340Z,5.50
2019-02-18T11:21:02.783Z,5.60
2019-02-18T11:23:36.202Z,5.70
2019-02-18T11:26:09.642Z,5.80
2019-02-18T11:28:43.071Z,6.00
2019-02-18T11:31:16.517Z,6.10
2019-02-18T11:33:50.408Z,6.30
2019-02-18T11:36:23.925Z,6.40
2019-02-18T11:38:57.345Z,6.50
2019-02-18T11:41:30.781Z,6.70
2019-02-18T11:44:04.783Z,6.80
2019-02-18T11:46:38.221Z,7.00
2019-02-18T11:49:11.640Z,7.20
2019-02-18T11:51:45.084Z,7.30
2019-02-18T11:54:18.513Z,7.40
2019-02-18T11:56:51.959Z,7.60
2019-02-18T11:59:25.394Z,7.70
2019-02-18T12:01:58.847Z,7.90
2019-02-18T12:04:32.344Z,8.10
2019-02-18T12:07:05.800Z,8.20
2019-02-18T12:09:39.309Z,8.40
2019-02-18T12:12:13.026Z,8.60
2019-02-18T12:14:46.450Z,8.70
2019-02-18T12:17:20.984Z,8.90
2019-02-18T12:19:55.211Z,9.00
2019-02-18T12:22:29.958Z,9.20
2019-02-18T12:25:03.459Z,9.30
2019-02-18T12:27:36.978Z,9.50
2019-02-18T12:30:17.807Z,9.70
2019-02-18T12:32:51.388Z,9.80
2019-02-18T12:35:31.102Z,10.00
2019-02-18T12:38:00.059Z,10.20
2019-02-18T12:40:33.492Z,10.40
2019-02-18T12:43:07.009Z,10.50
2019-02-18T12:45:40.449Z,10.60
2019-02-18T12:48:13.893Z,10.80
2019-02-18T12:50:47.329Z,10.90
2019-02-18T12:53:20.859Z,11.00
2019-02-18T12:55:54.429Z,11.10
2019-02-18T12:58:27.952Z,11.20
2019-02-18T13:01:01.387Z,11.30
2019-02-18T13:03:34.913Z,11.40
2019-02-18T13:06:08.421Z,11.60
2019-02-18T13:08:41.874Z,11.70
2019-02-18T13:11:15.376Z,11.80
2019-02-18T13:13:48.902Z,11.90
2019-02-18T13:16:22.409Z,12.00
2019-02-18T13:18:55.933Z,12.10
2019-02-18T13:21:29.437Z,12.30
2019-02-18T13:24:03.038Z,12.30
2019-02-18T13:26:36.540Z,12.40
2019-02-18T13:29:09.991Z,12.60
2019-02-18T13:31:43.501Z,12.70
2019-02-18T13:34:16.954Z,12.80
2019-02-18T13:36:50.382Z,12.90
2019-02-18T13:39:24.201Z,12.90
2019-02-18T13:41:57.633Z,13.10
2019-02-18T13:44:31.096Z,13.10
2019-02-18T13:47:04.909Z,13.20
2019-02-18T13:49:38.353Z,13.30
2019-02-18T13:52:11.939Z,13.40
2019-02-18T13:54:45.384Z,13.50
2019-02-18T13:57:18.816Z,13.60
2019-02-18T13:59:52.260Z,13.70
2019-02-18T14:02:25.770Z,13.80
2019-02-18T14:04:59.214Z,13.90
2019-02-18T14:07:32.788Z,13.90
2019-02-18T14:10:07.379Z,14.00
2019-02-18T14:12:41.425Z,14.10
2019-02-18T14:15:15.778Z,14.20
2019-02-18T14:17:50.577Z,14.30
2019-02-18T14:20:24.337Z,14.40
2019-02-18T14:22:58.142Z,14.40
2019-02-18T14:25:31.714Z,14.50
2019-02-18T14:28:05.273Z,14.60
2019-02-18T14:30:38.728Z,14.70
2019-02-18T14:33:12.176Z,14.70
2019-02-18T14:35:45.689Z,14.80
2019-02-18T14:38:19.184Z,14.80
2019-02-18T14:40:52.753Z,14.90
2019-02-18T14:43:26.232Z,15.10
2019-02-18T14:45:59.953Z,15.20
2019-02-18T14:48:33.420Z,15.40
2019-02-18T14:51:06.932Z,15.70
2019-02-18T14:53:40.352Z,15.90
2019-02-18T14:56:15.458Z,16.20
2019-02-18T14:58:48.957Z,16.70
2019-02-18T15:01:22.422Z,17.40
2019-02-18T15:03:55.916Z,18.10
2019-02-18T15:06:29.379Z,18.50
2019-02-18T15:09:03.276Z,18.30
2019-02-18T15:11:36.730Z,18.40
2019-02-18T15:14:10.220Z,19.00
2019-02-18T15:16:43.765Z,19.70
2019-02-18T15:19:17.673Z,20.00
2019-02-18T15:21:51.129Z,20.10
2019-02-18T15:24:24.640Z,20.30
2019-02-18T15:26:58.152Z,20.10
2019-02-18T15:29:31.589Z,19.30
2019-02-18T15:32:05.163Z,18.60
2019-02-18T15:34:38.669Z,17.90
2019-02-18T15:37:12.570Z,17.40
2019-02-18T15:39:46.005Z,16.90
2019-02-18T15:42:19.445Z,16.50
2019-02-18T15:44:52.949Z,16.20
2019-02-18T15:47:28.017Z,15.90
2019-02-18T15:50:01.446Z,15.60
2019-02-18T15:52:35.484Z,15.30
2019-02-18T15:55:10.154Z,15.00
2019-02-18T15:57:43.675Z,14.70
2019-02-18T16:00:25.737Z,14.40
2019-02-18T16:02:59.184Z,14.10
2019-02-18T16:05:32.688Z,13.80
2019-02-18T16:08:06.138Z,13.60
2019-02-18T16:10:39.570Z,13.30
2019-02-18T16:13:13.615Z,13.20
2019-02-18T16:15:47.126Z,13.00
2019-02-18T16:18:20.577Z,12.80
2019-02-18T16:20:54.013Z,12.60
2019-02-18T16:23:27.456Z,12.50
2019-02-18T16:26:00.892Z,12.30
2019-02-18T16:28:34.409Z,12.10
2019-02-18T16:31:07.842Z,12.00
2019-02-18T16:33:41.365Z,11.80
2019-02-18T16:36:14.809Z,11.70
2019-02-18T16:38:48.318Z,11.60
2019-02-18T16:41:21.827Z,11.50
2019-02-18T16:43:55.371Z,11.40
2019-02-18T16:46:29.389Z,11.30
2019-02-18T16:49:03.342Z,11.10
2019-02-18T16:51:36.849Z,11.00
2019-02-18T16:54:10.340Z,10.90
2019-02-18T16:56:43.800Z,10.80
2019-02-18T16:59:17.256Z,10.80
2019-02-18T17:01:53.653Z,10.60
2019-02-18T17:04:27.382Z,10.50
2019-02-18T17:07:01.192Z,10.40
2019-02-18T17:09:34.737Z,10.40
2019-02-18T17:12:08.173Z,10.30
2019-02-18T17:14:41.880Z,10.30
2019-02-18T17:17:15.613Z,10.20
2019-02-18T17:19:49.596Z,10.10
2019-02-18T17:22:23.030Z,10.00
2019-02-18T17:24:56.569Z,9.90
2019-02-18T17:27:30.053Z,9.90
2019-02-18T17:30:03.897Z,9.90
2019-02-18T17:32:37.327Z,9.80
2019-02-18T17:35:15.051Z,9.70
2019-02-18T17:37:48.561Z,9.70
2019-02-18T17:40:22.021Z,9.60
2019-02-18T17:42:55.722Z,9.50
2019-02-18T17:45:29.516Z,9.50
2019-02-18T17:48:02.977Z,9.40
2019-02-18T17:50:36.494Z,9.30
2019-02-18T17:53:10.312Z,9.20
2019-02-18T17:55:43.771Z,9.20
2019-02-18T17:58:17.321Z,9.10
2019-02-18T18:00:52.452Z,9.00
2019-02-18T18:03:25.966Z,9.00
2019-02-18T18:05:59.410Z,8.80
2019-02-18T18:08:32.913Z,8.80
2019-02-18T18:11:06.458Z,8.70
2019-02-18T18:13:39.986Z,8.60
2019-02-18T18:16:13.420Z,8.60
2019-02-18T18:18:46.860Z,8.50
2019-02-18T18:21:20.302Z,8.40
2019-02-18T18:23:53.727Z,8.40
2019-02-18T18:26:27.813Z,8.40
2019-02-18T18:29:01.263Z,8.30
2019-02-18T18:31:34.710Z,8.30
2019-02-18T18:34:08.157Z,8.10
2019-02-18T18:36:41.671Z,8.10
2019-02-18T18:39:15.107Z,8.00
2019-02-18T18:41:48.637Z,7.90
2019-02-18T18:44:22.069Z,7.90
2019-02-18T18:46:55.523Z,7.80
2019-02-18T18:49:28.949Z,7.80
2019-02-18T18:52:02.400Z,7.70
2019-02-18T18:54:35.834Z,7.70
2019-02-18T18:57:09.297Z,7.60
2019-02-18T18:59:43.410Z,7.60
2019-02-18T19:02:16.857Z,7.50
2019-02-18T19:04:50.297Z,7.50
2019-02-18T19:07:23.752Z,7.40
2019-02-18T19:09:57.765Z,7.30
2019-02-18T19:12:31.270Z,7.30
2019-02-18T19:15:07.125Z,7.20
2019-02-18T19:17:40.575Z,7.20
2019-02-18T19:20:14.304Z,7.10
2019-02-18T19:22:47.765Z,7.10
2019-02-18T19:25:21.193Z,7.10
2019-02-18T19:27:54.650Z,7.00
2019-02-18T19:30:30.799Z,7.00
2019-02-18T19:33:04.237Z,6.90
2019-02-18T19:35:37.665Z,6.80
2019-02-18T19:38:11.129Z,6.80
2019-02-18T19:40:44.626Z,6.70
2019-02-18T19:43:18.056Z,6.70
2019-02-18T19:45:51.497Z,6.70
2019-02-18T19:48:24.943Z,6.70
2019-02-18T19:50:58.369Z,6.60
2019-02-18T19:53:32.406Z,6.60
2019-02-18T19:56:05.829Z,6.60
2019-02-18T19:58:39.270Z,6.50
2019-02-18T20:01:12.697Z,6.50
2019-02-18T20:03:46.538Z,6.50
2019-02-18T20:06:19.969Z,6.40
2019-02-18T20:08:53.421Z,6.40
2019-02-18T20:11:26.862Z,6.30
2019-02-18T20:14:00.390Z,6.20
2019-02-18T20:16:33.815Z,6.20
2019-02-18T20:19:07.272Z,6.10
2019-02-18T20:21:40.696Z,6.10
2019-02-18T20:24:14.141Z,6.00
2019-02-18T20:26:47.946Z,6.10
2019-02-18T20:29:21.416Z,6.00
2019-02-18T20:31:54.858Z,5.90
2019-02-18T20:34:28.292Z,5.90
2019-02-18T20:37:02.395Z,5.90
2019-02-18T20:39:35.830Z,5.80
2019-02-18T20:42:09.275Z,5.80
2019-02-18T20:44:42.760Z,5.80
2019-02-18T20:47:16.208Z,5.70
2019-02-18T20:49:49.773Z,5.70
2019-02-18T20:52:23.270Z,5.60
2019-02-18T20:54:56.730Z,5.60
2019-02-18T20:57:30.187Z,5.60
2019-02-18T21:00:06.019Z,5.50
2019-02-18T21:02:39.439Z,5.50
2019-02-18T21:05:12.882Z,5.40
2019-02-18T21:07:46.377Z,5.40
2019-02-18T21:10:21.321Z,5.40
2019-02-18T21:12:54.748Z,5.30
2019-02-18T21:15:28.267Z,5.30
2019-02-18T21:18:01.755Z,5.20
2019-02-18T21:20:35.798Z,5.20
2019-02-18T21:23:09.305Z,5.30
2019-02-18T21:25:42.825Z,5.20
2019-02-18T21:28:16.254Z,5.20
2019-02-18T21:30:49.717Z,5.20
2019-02-18T21:33:23.216Z,5.10
2019-02-18T21:35:56.867Z,5.10
2019-02-18T21:38:30.287Z,5.10
2019-02-18T21:41:03.752Z,5.10
2019-02-18T21:43:37.172Z,5.00
2019-02-18T21:46:10.619Z,5.00
2019-02-18T21:48:44.043Z,5.00
2019-02-18T21:51:17.491Z,5.00
2019-02-18T21:53:51.296Z,4.90
2019-02-18T21:56:24.752Z,4.80
2019-02-18T21:58:58.172Z,4.70
2019-02-18T22:01:31.691Z,4.70
2019-02-18T22:04:05.180Z,4.70
2019-02-18T22:06:38.623Z,4.70
2019-02-18T22:09:12.049Z,4.70
2019-02-18T22:11:45.507Z,4.70
2019-02-18T22:14:18.998Z,4.70
2019-02-18T22:16:52.812Z,4.60
2019-02-18T22:19:26.250Z,4.70
2019-02-18T22:21:59.696Z,4.60
2019-02-18T22:24:33.198Z,4.60
2019-02-18T22:27:06.744Z,4.60
2019-02-18T22:29:40.165Z,4.50
2019-02-18T22:32:13.621Z,4.50
2019-02-18T22:34:47.039Z,4.50
2019-02-18T22:37:20.486Z,4.50
2019-02-18T22:39:54.283Z,4.50
2019-02-18T22:42:27.724Z,4.50
2019-02-18T22:45:01.166Z,4.50
2019-02-18T22:47:34.608Z,4.50
2019-02-18T22:50:10.491Z,4.40
2019-02-18T22:52:43.920Z,4.40
2019-02-18T22:55:17.339Z,4.30
2019-02-18T22:57:50.775Z,4.30
2019-02-18T23:00:28.922Z,4.30
2019-02-18T23:03:02.896Z,4.20
2019-02-18T23:05:36.318Z,4.20
2019-02-18T23:08:09.753Z,4.20
2019-02-18T23:10:43.181Z,4.20
2019-02-18T23:13:16.615Z,4.20
2019-02-18T23:15:50.056Z,4.20
2019-02-18T23:18:23.561Z,4.20
2019-02-18T23:20:56.993Z,4.10
2019-02-18T23:23:30.424Z,4.10
2019-02-18T23:26:04.337Z,4.20
2019-02-18T23:28:37.768Z,4.10
2019-02-18T23:31:11.197Z,4.10
2019-02-18T23:33:44.641Z,4.10
2019-02-18T23:36:18.061Z,4.10
2019-02-18T23:38:51.510Z,4.00
2019-02-18T23:41:26.048Z,4.00
2019-02-18T23:43:59.493Z,4.00
2019-02-18T23:46:32.930Z,3.90
2019-02-18T23:49:06.565Z,3.90
2019-02-18T23:51:40.003Z,3.90
2019-02-18T23:54:13.437Z,3.80
2019-02-18T23:56:46.860Z,3.80
2019-02-18T23:59:20.379Z,3.80
